香港 の空港の天気 - METARとTAF

香港国際空港 ( VHHH / HKG ) - 香港 赤リョウ角
飛行場実況気象(Metar)
観測時間12/14 14:00 HKT (12/14 06:00 UTC)
風向・風速北 4m/s
視程10km以上
天気現象
少しの雲 雲底高度 670m
全天の4割程度の雲 雲底高度 790m
気温16℃
湿度63%
気圧1025hPa
METARVHHH 140600Z 35008KT 9999 FEW022 SCT026 16/09 Q1025 NOSIG
過去の天気等 Google飛行場航空写真 Wunderground天気予報

過去48時間のMETAR

飛行場予報(TAF)
発表時間: 12/14 13:00 HKT (12/14 05:00 UTC)
予報対象時間: 14日14時 HKT ~ 15日20時 HKT
風向・風速北北東 5m/s
視程10km以上
少しの雲 雲底高度 760m
14日14時 HKT ~ 14日17時 HKT に一時的に
風向・風速北北西 5m/s
14日17時 HKT ~ 14日23時 HKT に一時的に
風向・風速不定 3m/s
15日12時 HKT ~ 15日17時 HKT に一時的に
風向・風速北西 5m/s
15日17時 HKT ~ 15日20時 HKT に一時的に
風向・風速不定 3m/s
TAF VHHH 140500Z 1406/1512 03010KT 9999 FEW025 TX18/1406Z TX20/1506Z TN15/1423Z
TEMPO 1406/1409 33010KT
TEMPO 1409/1415 VRB05KT
TEMPO 1504/1509 32010KT
TEMPO 1509/1512 VRB05KT